sensor_id;sensor_type;location;lat;lon;timestamp;P1;durP1;ratioP1;P2;durP2;ratioP2
13234;SDS011;6683;48.506;9.050;2022-08-11T00:01:36;1.57;;;1.10;;
13234;SDS011;6683;48.506;9.050;2022-08-11T00:04:46;1.03;;;0.97;;
13234;SDS011;6683;48.506;9.050;2022-08-11T00:07:50;2.20;;;1.10;;
13234;SDS011;6683;48.506;9.050;2022-08-11T00:10:56;1.17;;;1.07;;
13234;SDS011;6683;48.506;9.050;2022-08-11T00:14:02;1.20;;;1.07;;
13234;SDS011;6683;48.506;9.050;2022-08-11T00:17:13;1.90;;;1.00;;
13234;SDS011;6683;48.506;9.050;2022-08-11T00:20:19;1.20;;;1.10;;
13234;SDS011;6683;48.506;9.050;2022-08-11T00:23:22;1.90;;;1.20;;
13234;SDS011;6683;48.506;9.050;2022-08-11T00:26:26;1.23;;;1.13;;
13234;SDS011;6683;48.506;9.050;2022-08-11T00:29:30;1.33;;;1.23;;
13234;SDS011;6683;48.506;9.050;2022-08-11T00:32:34;1.30;;;1.20;;
13234;SDS011;6683;48.506;9.050;2022-08-11T00:35:40;2.57;;;1.10;;
13234;SDS011;6683;48.506;9.050;2022-08-11T00:38:44;1.20;;;1.07;;
13234;SDS011;6683;48.506;9.050;2022-08-11T00:41:57;2.30;;;1.20;;
13234;SDS011;6683;48.506;9.050;2022-08-11T00:45:19;1.37;;;1.10;;
13234;SDS011;6683;48.506;9.050;2022-08-11T00:48:28;1.73;;;1.20;;
13234;SDS011;6683;48.506;9.050;2022-08-11T00:51:54;1.93;;;1.43;;
13234;SDS011;6683;48.506;9.050;2022-08-11T01:02:44;1.37;;;1.20;;
13234;SDS011;6683;48.506;9.050;2022-08-11T01:06:27;1.03;;;1.00;;
13234;SDS011;6683;48.506;9.050;2022-08-11T01:10:05;1.30;;;1.20;;
13234;SDS011;6683;48.506;9.050;2022-08-11T01:29:39;1.23;;;1.13;;
13234;SDS011;6683;48.506;9.050;2022-08-11T01:37:21;1.20;;;1.10;;
13234;SDS011;6683;48.506;9.050;2022-08-11T01:45:29;2.17;;;1.20;;
13234;SDS011;6683;48.506;9.050;2022-08-11T01:48:40;1.87;;;1.17;;
13234;SDS011;6683;48.506;9.050;2022-08-11T01:51:59;1.80;;;1.23;;
13234;SDS011;6683;48.506;9.050;2022-08-11T01:55:16;1.67;;;1.57;;
13234;SDS011;6683;48.506;9.050;2022-08-11T01:58:30;1.30;;;1.20;;
13234;SDS011;6683;48.506;9.050;2022-08-11T02:01:44;1.60;;;1.20;;
13234;SDS011;6683;48.506;9.050;2022-08-11T02:05:22;2.50;;;1.30;;
13234;SDS011;6683;48.506;9.050;2022-08-11T02:08:41;1.40;;;1.30;;
13234;SDS011;6683;48.506;9.050;2022-08-11T02:12:00;2.47;;;1.50;;
13234;SDS011;6683;48.506;9.050;2022-08-11T02:15:19;1.57;;;1.30;;
13234;SDS011;6683;48.506;9.050;2022-08-11T02:18:31;1.30;;;1.20;;
13234;SDS011;6683;48.506;9.050;2022-08-11T02:21:52;1.70;;;1.20;;
13234;SDS011;6683;48.506;9.050;2022-08-11T02:25:22;1.40;;;1.30;;
13234;SDS011;6683;48.506;9.050;2022-08-11T02:28:37;1.57;;;1.10;;
13234;SDS011;6683;48.506;9.050;2022-08-11T02:32:04;1.50;;;1.37;;
13234;SDS011;6683;48.506;9.050;2022-08-11T02:35:34;1.27;;;1.17;;
13234;SDS011;6683;48.506;9.050;2022-08-11T02:38:48;1.60;;;1.50;;
13234;SDS011;6683;48.506;9.050;2022-08-11T02:42:03;1.53;;;1.40;;
13234;SDS011;6683;48.506;9.050;2022-08-11T02:48:58;2.13;;;1.40;;
13234;SDS011;6683;48.506;9.050;2022-08-11T02:52:30;1.97;;;1.30;;
13234;SDS011;6683;48.506;9.050;2022-08-11T02:55:46;1.67;;;1.37;;
13234;SDS011;6683;48.506;9.050;2022-08-11T02:59:00;1.70;;;1.30;;
13234;SDS011;6683;48.506;9.050;2022-08-11T03:06:23;1.40;;;1.30;;
13234;SDS011;6683;48.506;9.050;2022-08-11T03:09:43;1.53;;;1.43;;
13234;SDS011;6683;48.506;9.050;2022-08-11T03:12:57;1.30;;;1.20;;
13234;SDS011;6683;48.506;9.050;2022-08-11T03:16:35;3.03;;;1.50;;
13234;SDS011;6683;48.506;9.050;2022-08-11T03:19:52;2.10;;;1.50;;
13234;SDS011;6683;48.506;9.050;2022-08-11T03:23:11;5.27;;;1.77;;
13234;SDS011;6683;48.506;9.050;2022-08-11T03:26:27;2.20;;;1.50;;
13234;SDS011;6683;48.506;9.050;2022-08-11T03:29:34;2.43;;;1.40;;
13234;SDS011;6683;48.506;9.050;2022-08-11T03:32:50;1.50;;;1.40;;
13234;SDS011;6683;48.506;9.050;2022-08-11T03:36:40;1.50;;;1.40;;
13234;SDS011;6683;48.506;9.050;2022-08-11T03:40:09;1.40;;;1.30;;
13234;SDS011;6683;48.506;9.050;2022-08-11T03:43:50;1.80;;;1.30;;
13234;SDS011;6683;48.506;9.050;2022-08-11T03:47:17;1.50;;;1.40;;
13234;SDS011;6683;48.506;9.050;2022-08-11T03:50:47;1.97;;;1.70;;
13234;SDS011;6683;48.506;9.050;2022-08-11T03:54:10;2.10;;;1.67;;
13234;SDS011;6683;48.506;9.050;2022-08-11T03:57:41;1.67;;;1.57;;
13234;SDS011;6683;48.506;9.050;2022-08-11T04:01:25;1.40;;;1.30;;
13234;SDS011;6683;48.506;9.050;2022-08-11T04:05:08;1.57;;;1.43;;
13234;SDS011;6683;48.506;9.050;2022-08-11T04:08:51;1.93;;;1.30;;
13234;SDS011;6683;48.506;9.050;2022-08-11T04:16:40;1.77;;;1.47;;
13234;SDS011;6683;48.506;9.050;2022-08-11T04:23:39;1.70;;;1.60;;
13234;SDS011;6683;48.506;9.050;2022-08-11T04:27:16;1.53;;;1.43;;
13234;SDS011;6683;48.506;9.050;2022-08-11T04:30:41;1.70;;;1.60;;
13234;SDS011;6683;48.506;9.050;2022-08-11T04:34:14;4.97;;;1.77;;
13234;SDS011;6683;48.506;9.050;2022-08-11T04:38:04;1.60;;;1.50;;
13234;SDS011;6683;48.506;9.050;2022-08-11T04:41:52;2.00;;;1.77;;
13234;SDS011;6683;48.506;9.050;2022-08-11T04:46:00;3.00;;;1.77;;
13234;SDS011;6683;48.506;9.050;2022-08-11T04:49:38;2.67;;;2.00;;
13234;SDS011;6683;48.506;9.050;2022-08-11T04:53:33;1.77;;;1.67;;
13234;SDS011;6683;48.506;9.050;2022-08-11T04:57:15;2.00;;;1.80;;
13234;SDS011;6683;48.506;9.050;2022-08-11T05:00:54;2.17;;;1.70;;
13234;SDS011;6683;48.506;9.050;2022-08-11T05:04:39;1.80;;;1.70;;
13234;SDS011;6683;48.506;9.050;2022-08-11T05:12:21;1.77;;;1.67;;
13234;SDS011;6683;48.506;9.050;2022-08-11T05:15:33;1.70;;;1.60;;
13234;SDS011;6683;48.506;9.050;2022-08-11T05:19:04;1.70;;;1.60;;
13234;SDS011;6683;48.506;9.050;2022-08-11T05:22:26;2.00;;;1.90;;
13234;SDS011;6683;48.506;9.050;2022-08-11T05:25:48;1.77;;;1.67;;
13234;SDS011;6683;48.506;9.050;2022-08-11T05:29:26;2.13;;;1.73;;
13234;SDS011;6683;48.506;9.050;2022-08-11T05:32:58;2.13;;;1.93;;
13234;SDS011;6683;48.506;9.050;2022-08-11T05:36:24;4.57;;;2.10;;
13234;SDS011;6683;48.506;9.050;2022-08-11T05:39:32;2.70;;;2.00;;
13234;SDS011;6683;48.506;9.050;2022-08-11T05:43:02;1.93;;;1.83;;
13234;SDS011;6683;48.506;9.050;2022-08-11T05:46:38;2.27;;;1.97;;
13234;SDS011;6683;48.506;9.050;2022-08-11T05:50:00;4.57;;;1.90;;
13234;SDS011;6683;48.506;9.050;2022-08-11T05:53:25;2.23;;;2.03;;
13234;SDS011;6683;48.506;9.050;2022-08-11T05:56:46;2.73;;;1.83;;
13234;SDS011;6683;48.506;9.050;2022-08-11T05:59:57;2.43;;;2.23;;
13234;SDS011;6683;48.506;9.050;2022-08-11T06:03:04;3.77;;;1.93;;
13234;SDS011;6683;48.506;9.050;2022-08-11T06:06:09;2.83;;;1.73;;
13234;SDS011;6683;48.506;9.050;2022-08-11T06:09:12;3.13;;;2.10;;
13234;SDS011;6683;48.506;9.050;2022-08-11T06:12:16;2.20;;;2.00;;
13234;SDS011;6683;48.506;9.050;2022-08-11T06:15:22;2.43;;;2.20;;
13234;SDS011;6683;48.506;9.050;2022-08-11T06:18:28;2.63;;;1.90;;
13234;SDS011;6683;48.506;9.050;2022-08-11T06:21:33;3.07;;;1.87;;
13234;SDS011;6683;48.506;9.050;2022-08-11T06:24:36;3.03;;;2.20;;
13234;SDS011;6683;48.506;9.050;2022-08-11T06:27:44;2.33;;;2.13;;
13234;SDS011;6683;48.506;9.050;2022-08-11T06:30:55;3.30;;;2.00;;
13234;SDS011;6683;48.506;9.050;2022-08-11T06:34:02;6.13;;;2.43;;
13234;SDS011;6683;48.506;9.050;2022-08-11T06:37:15;2.27;;;2.00;;
13234;SDS011;6683;48.506;9.050;2022-08-11T06:40:30;2.10;;;1.90;;
13234;SDS011;6683;48.506;9.050;2022-08-11T06:43:45;2.23;;;1.90;;
13234;SDS011;6683;48.506;9.050;2022-08-11T06:46:51;2.70;;;1.87;;
13234;SDS011;6683;48.506;9.050;2022-08-11T06:50:01;3.70;;;2.10;;
13234;SDS011;6683;48.506;9.050;2022-08-11T06:53:24;3.63;;;1.90;;
13234;SDS011;6683;48.506;9.050;2022-08-11T06:56:34;1.90;;;1.80;;
13234;SDS011;6683;48.506;9.050;2022-08-11T06:59:56;3.27;;;1.93;;
13234;SDS011;6683;48.506;9.050;2022-08-11T07:03:17;2.90;;;2.10;;
13234;SDS011;6683;48.506;9.050;2022-08-11T07:06:31;2.23;;;1.90;;
13234;SDS011;6683;48.506;9.050;2022-08-11T07:09:51;4.03;;;2.27;;
13234;SDS011;6683;48.506;9.050;2022-08-11T07:13:45;5.67;;;1.53;;
13234;SDS011;6683;48.506;9.050;2022-08-11T07:17:07;2.03;;;1.83;;
13234;SDS011;6683;48.506;9.050;2022-08-11T07:20:16;1.87;;;1.50;;
13234;SDS011;6683;48.506;9.050;2022-08-11T07:23:38;2.07;;;1.70;;
13234;SDS011;6683;48.506;9.050;2022-08-11T07:26:58;2.53;;;1.70;;
13234;SDS011;6683;48.506;9.050;2022-08-11T07:30:35;2.38;;;1.80;;
13234;SDS011;6683;48.506;9.050;2022-08-11T07:33:43;3.47;;;2.00;;
13234;SDS011;6683;48.506;9.050;2022-08-11T07:36:50;3.47;;;1.80;;
13234;SDS011;6683;48.506;9.050;2022-08-11T07:39:57;2.40;;;2.20;;
13234;SDS011;6683;48.506;9.050;2022-08-11T07:43:01;2.80;;;2.08;;
13234;SDS011;6683;48.506;9.050;2022-08-11T07:46:06;4.25;;;1.92;;
13234;SDS011;6683;48.506;9.050;2022-08-11T07:49:27;2.05;;;1.60;;
13234;SDS011;6683;48.506;9.050;2022-08-11T07:52:50;3.63;;;2.00;;
13234;SDS011;6683;48.506;9.050;2022-08-11T07:55:59;2.17;;;1.55;;
13234;SDS011;6683;48.506;9.050;2022-08-11T07:59:04;2.63;;;1.90;;
13234;SDS011;6683;48.506;9.050;2022-08-11T08:02:25;1.70;;;1.60;;
13234;SDS011;6683;48.506;9.050;2022-08-11T08:05:46;1.92;;;1.80;;
13234;SDS011;6683;48.506;9.050;2022-08-11T08:09:07;3.53;;;1.70;;
13234;SDS011;6683;48.506;9.050;2022-08-11T08:12:29;2.15;;;1.52;;
13234;SDS011;6683;48.506;9.050;2022-08-11T08:15:50;4.95;;;1.90;;
13234;SDS011;6683;48.506;9.050;2022-08-11T08:19:11;1.63;;;1.50;;
13234;SDS011;6683;48.506;9.050;2022-08-11T08:22:19;2.13;;;1.70;;
13234;SDS011;6683;48.506;9.050;2022-08-11T08:25:23;2.13;;;1.80;;
13234;SDS011;6683;48.506;9.050;2022-08-11T08:28:28;2.45;;;1.77;;
13234;SDS011;6683;48.506;9.050;2022-08-11T08:31:31;2.85;;;1.60;;
13234;SDS011;6683;48.506;9.050;2022-08-11T08:34:33;1.60;;;1.50;;
13234;SDS011;6683;48.506;9.050;2022-08-11T08:37:37;6.22;;;2.38;;
13234;SDS011;6683;48.506;9.050;2022-08-11T08:40:40;1.63;;;1.52;;
13234;SDS011;6683;48.506;9.050;2022-08-11T08:43:49;2.45;;;2.22;;
13234;SDS011;6683;48.506;9.050;2022-08-11T08:46:55;3.05;;;1.65;;
13234;SDS011;6683;48.506;9.050;2022-08-11T08:50:02;1.67;;;1.58;;
13234;SDS011;6683;48.506;9.050;2022-08-11T08:53:07;1.80;;;1.70;;
13234;SDS011;6683;48.506;9.050;2022-08-11T08:56:10;3.35;;;1.90;;
13234;SDS011;6683;48.506;9.050;2022-08-11T08:59:15;5.50;;;1.80;;
13234;SDS011;6683;48.506;9.050;2022-08-11T09:02:23;1.55;;;1.45;;
13234;SDS011;6683;48.506;9.050;2022-08-11T09:05:26;2.72;;;1.60;;
13234;SDS011;6683;48.506;9.050;2022-08-11T09:08:29;1.80;;;1.63;;
13234;SDS011;6683;48.506;9.050;2022-08-11T09:11:32;2.20;;;1.58;;
13234;SDS011;6683;48.506;9.050;2022-08-11T09:14:56;1.55;;;1.45;;
13234;SDS011;6683;48.506;9.050;2022-08-11T09:18:03;2.00;;;1.73;;
13234;SDS011;6683;48.506;9.050;2022-08-11T09:21:08;3.67;;;1.88;;
13234;SDS011;6683;48.506;9.050;2022-08-11T09:24:15;3.05;;;1.70;;
13234;SDS011;6683;48.506;9.050;2022-08-11T09:27:36;2.10;;;1.52;;
13234;SDS011;6683;48.506;9.050;2022-08-11T09:30:41;2.03;;;1.42;;
13234;SDS011;6683;48.506;9.050;2022-08-11T09:33:47;2.95;;;1.60;;
13234;SDS011;6683;48.506;9.050;2022-08-11T09:36:55;2.10;;;1.70;;
13234;SDS011;6683;48.506;9.050;2022-08-11T09:40:16;2.05;;;1.85;;
13234;SDS011;6683;48.506;9.050;2022-08-11T09:43:35;3.13;;;1.88;;
13234;SDS011;6683;48.506;9.050;2022-08-11T09:47:02;2.47;;;1.50;;
13234;SDS011;6683;48.506;9.050;2022-08-11T09:50:14;1.77;;;1.67;;
13234;SDS011;6683;48.506;9.050;2022-08-11T09:53:18;1.75;;;1.65;;
13234;SDS011;6683;48.506;9.050;2022-08-11T09:56:22;2.47;;;1.73;;
13234;SDS011;6683;48.506;9.050;2022-08-11T09:59:43;1.50;;;1.40;;
13234;SDS011;6683;48.506;9.050;2022-08-11T10:02:47;1.60;;;1.50;;
13234;SDS011;6683;48.506;9.050;2022-08-11T10:05:55;2.45;;;1.27;;
13234;SDS011;6683;48.506;9.050;2022-08-11T10:09:19;2.13;;;1.50;;
13234;SDS011;6683;48.506;9.050;2022-08-11T10:12:25;1.30;;;1.20;;
13234;SDS011;6683;48.506;9.050;2022-08-11T10:15:36;2.65;;;1.40;;
13234;SDS011;6683;48.506;9.050;2022-08-11T10:18:46;1.52;;;1.42;;
13234;SDS011;6683;48.506;9.050;2022-08-11T10:21:52;1.40;;;1.30;;
13234;SDS011;6683;48.506;9.050;2022-08-11T10:25:13;1.73;;;1.38;;
13234;SDS011;6683;48.506;9.050;2022-08-11T10:28:33;2.40;;;1.80;;
13234;SDS011;6683;48.506;9.050;2022-08-11T10:31:37;1.55;;;1.45;;
13234;SDS011;6683;48.506;9.050;2022-08-11T10:35:08;2.25;;;1.42;;
13234;SDS011;6683;48.506;9.050;2022-08-11T10:38:13;1.63;;;1.30;;
13234;SDS011;6683;48.506;9.050;2022-08-11T10:41:16;1.30;;;1.20;;
13234;SDS011;6683;48.506;9.050;2022-08-11T10:44:37;1.10;;;1.10;;
13234;SDS011;6683;48.506;9.050;2022-08-11T10:47:46;1.45;;;1.35;;
13234;SDS011;6683;48.506;9.050;2022-08-11T10:50:49;1.63;;;1.40;;
13234;SDS011;6683;48.506;9.050;2022-08-11T10:54:09;1.48;;;1.38;;
13234;SDS011;6683;48.506;9.050;2022-08-11T10:57:30;2.78;;;1.50;;
13234;SDS011;6683;48.506;9.050;2022-08-11T11:00:50;1.88;;;1.35;;
13234;SDS011;6683;48.506;9.050;2022-08-11T11:03:57;1.58;;;1.48;;
13234;SDS011;6683;48.506;9.050;2022-08-11T11:07:04;1.55;;;1.45;;
13234;SDS011;6683;48.506;9.050;2022-08-11T11:10:12;2.33;;;1.60;;
13234;SDS011;6683;48.506;9.050;2022-08-11T11:13:16;2.22;;;1.60;;
13234;SDS011;6683;48.506;9.050;2022-08-11T11:16:37;1.55;;;1.40;;
13234;SDS011;6683;48.506;9.050;2022-08-11T11:19:58;2.25;;;1.58;;
13234;SDS011;6683;48.506;9.050;2022-08-11T11:23:06;3.10;;;1.30;;
13234;SDS011;6683;48.506;9.050;2022-08-11T11:26:30;2.17;;;1.52;;
13234;SDS011;6683;48.506;9.050;2022-08-11T11:29:50;2.42;;;1.30;;
13234;SDS011;6683;48.506;9.050;2022-08-11T11:33:03;4.22;;;1.40;;
13234;SDS011;6683;48.506;9.050;2022-08-11T11:36:15;1.50;;;1.40;;
13234;SDS011;6683;48.506;9.050;2022-08-11T11:39:27;1.45;;;1.35;;
13234;SDS011;6683;48.506;9.050;2022-08-11T11:42:33;1.98;;;1.85;;
13234;SDS011;6683;48.506;9.050;2022-08-11T11:45:35;1.90;;;1.48;;
13234;SDS011;6683;48.506;9.050;2022-08-11T11:48:40;1.58;;;1.48;;
13234;SDS011;6683;48.506;9.050;2022-08-11T11:51:44;3.42;;;1.77;;
13234;SDS011;6683;48.506;9.050;2022-08-11T11:54:51;1.77;;;1.67;;
13234;SDS011;6683;48.506;9.050;2022-08-11T11:57:59;1.80;;;1.50;;
13234;SDS011;6683;48.506;9.050;2022-08-11T12:01:21;1.63;;;1.52;;
13234;SDS011;6683;48.506;9.050;2022-08-11T12:04:25;1.85;;;1.30;;
13234;SDS011;6683;48.506;9.050;2022-08-11T12:07:28;1.50;;;1.40;;
13234;SDS011;6683;48.506;9.050;2022-08-11T12:10:51;1.63;;;1.42;;
13234;SDS011;6683;48.506;9.050;2022-08-11T12:14:16;1.63;;;1.42;;
13234;SDS011;6683;48.506;9.050;2022-08-11T12:17:20;1.40;;;1.30;;
13234;SDS011;6683;48.506;9.050;2022-08-11T12:20:23;1.48;;;1.38;;
13234;SDS011;6683;48.506;9.050;2022-08-11T12:23:26;1.50;;;1.40;;
13234;SDS011;6683;48.506;9.050;2022-08-11T12:26:50;1.75;;;1.50;;
13234;SDS011;6683;48.506;9.050;2022-08-11T12:30:11;1.92;;;1.50;;
13234;SDS011;6683;48.506;9.050;2022-08-11T12:33:14;1.80;;;1.70;;
13234;SDS011;6683;48.506;9.050;2022-08-11T12:36:17;1.55;;;1.40;;
13234;SDS011;6683;48.506;9.050;2022-08-11T12:39:21;1.60;;;1.50;;
13234;SDS011;6683;48.506;9.050;2022-08-11T12:42:51;1.58;;;1.33;;
13234;SDS011;6683;48.506;9.050;2022-08-11T12:46:13;1.30;;;1.20;;
13234;SDS011;6683;48.506;9.050;2022-08-11T12:49:20;1.30;;;1.17;;
13234;SDS011;6683;48.506;9.050;2022-08-11T12:52:42;2.08;;;1.50;;
13234;SDS011;6683;48.506;9.050;2022-08-11T12:55:53;1.48;;;1.38;;
13234;SDS011;6683;48.506;9.050;2022-08-11T12:59:17;1.10;;;1.10;;
13234;SDS011;6683;48.506;9.050;2022-08-11T13:02:37;1.73;;;1.30;;
13234;SDS011;6683;48.506;9.050;2022-08-11T13:05:59;3.20;;;1.50;;
13234;SDS011;6683;48.506;9.050;2022-08-11T13:09:04;2.22;;;1.38;;
13234;SDS011;6683;48.506;9.050;2022-08-11T13:12:08;1.58;;;1.40;;
13234;SDS011;6683;48.506;9.050;2022-08-11T13:15:30;1.60;;;1.48;;
13234;SDS011;6683;48.506;9.050;2022-08-11T13:18:33;1.40;;;1.30;;
13234;SDS011;6683;48.506;9.050;2022-08-11T13:21:35;1.42;;;1.30;;
13234;SDS011;6683;48.506;9.050;2022-08-11T13:24:38;1.75;;;1.40;;
13234;SDS011;6683;48.506;9.050;2022-08-11T13:27:41;2.33;;;1.30;;
13234;SDS011;6683;48.506;9.050;2022-08-11T13:30:47;1.55;;;1.27;;
13234;SDS011;6683;48.506;9.050;2022-08-11T13:34:08;2.13;;;1.42;;
13234;SDS011;6683;48.506;9.050;2022-08-11T13:37:11;1.70;;;1.35;;
13234;SDS011;6683;48.506;9.050;2022-08-11T13:40:16;1.83;;;1.73;;
13234;SDS011;6683;48.506;9.050;2022-08-11T13:43:22;1.95;;;1.30;;
13234;SDS011;6683;48.506;9.050;2022-08-11T13:46:26;1.83;;;1.20;;
13234;SDS011;6683;48.506;9.050;2022-08-11T13:49:30;1.50;;;1.40;;
13234;SDS011;6683;48.506;9.050;2022-08-11T13:52:36;1.48;;;1.38;;
13234;SDS011;6683;48.506;9.050;2022-08-11T13:55:41;1.27;;;1.17;;
13234;SDS011;6683;48.506;9.050;2022-08-11T13:58:45;1.48;;;1.38;;
13234;SDS011;6683;48.506;9.050;2022-08-11T14:01:51;1.45;;;1.35;;
13234;SDS011;6683;48.506;9.050;2022-08-11T14:05:00;1.40;;;1.30;;
13234;SDS011;6683;48.506;9.050;2022-08-11T14:08:09;1.30;;;1.20;;
13234;SDS011;6683;48.506;9.050;2022-08-11T14:11:17;1.90;;;1.10;;
13234;SDS011;6683;48.506;9.050;2022-08-11T14:14:38;1.50;;;1.40;;
13234;SDS011;6683;48.506;9.050;2022-08-11T14:17:43;1.70;;;1.38;;
13234;SDS011;6683;48.506;9.050;2022-08-11T14:20:49;1.48;;;1.38;;
13234;SDS011;6683;48.506;9.050;2022-08-11T14:24:15;1.52;;;1.42;;
13234;SDS011;6683;48.506;9.050;2022-08-11T14:27:19;1.40;;;1.30;;
13234;SDS011;6683;48.506;9.050;2022-08-11T14:30:30;1.88;;;1.25;;
13234;SDS011;6683;48.506;9.050;2022-08-11T14:33:58;1.60;;;1.50;;
13234;SDS011;6683;48.506;9.050;2022-08-11T14:37:05;1.52;;;1.42;;
13234;SDS011;6683;48.506;9.050;2022-08-11T14:40:10;1.48;;;1.38;;
13234;SDS011;6683;48.506;9.050;2022-08-11T14:43:34;1.38;;;1.27;;
13234;SDS011;6683;48.506;9.050;2022-08-11T14:46:54;1.60;;;1.50;;
13234;SDS011;6683;48.506;9.050;2022-08-11T14:50:10;1.52;;;1.38;;
13234;SDS011;6683;48.506;9.050;2022-08-11T14:53:17;2.10;;;1.38;;
13234;SDS011;6683;48.506;9.050;2022-08-11T14:56:23;1.80;;;1.50;;
13234;SDS011;6683;48.506;9.050;2022-08-11T14:59:36;1.42;;;1.33;;
13234;SDS011;6683;48.506;9.050;2022-08-11T15:02:39;2.22;;;1.23;;
13234;SDS011;6683;48.506;9.050;2022-08-11T15:06:01;1.30;;;1.25;;
13234;SDS011;6683;48.506;9.050;2022-08-11T15:09:04;2.03;;;1.60;;
13234;SDS011;6683;48.506;9.050;2022-08-11T15:12:07;1.40;;;1.30;;
13234;SDS011;6683;48.506;9.050;2022-08-11T15:15:15;1.75;;;1.35;;
13234;SDS011;6683;48.506;9.050;2022-08-11T15:18:37;1.42;;;1.33;;
13234;SDS011;6683;48.506;9.050;2022-08-11T15:21:41;1.52;;;1.42;;
13234;SDS011;6683;48.506;9.050;2022-08-11T15:25:01;2.05;;;1.45;;
13234;SDS011;6683;48.506;9.050;2022-08-11T15:28:04;1.60;;;1.50;;
13234;SDS011;6683;48.506;9.050;2022-08-11T15:31:27;1.40;;;1.30;;
13234;SDS011;6683;48.506;9.050;2022-08-11T15:34:55;1.50;;;1.30;;
13234;SDS011;6683;48.506;9.050;2022-08-11T15:38:21;1.45;;;1.35;;
13234;SDS011;6683;48.506;9.050;2022-08-11T15:41:27;1.55;;;1.23;;
13234;SDS011;6683;48.506;9.050;2022-08-11T15:45:01;1.88;;;1.40;;
13234;SDS011;6683;48.506;9.050;2022-08-11T15:48:26;1.90;;;1.52;;
13234;SDS011;6683;48.506;9.050;2022-08-11T15:51:44;1.67;;;1.30;;
13234;SDS011;6683;48.506;9.050;2022-08-11T15:54:52;1.40;;;1.27;;
13234;SDS011;6683;48.506;9.050;2022-08-11T15:57:58;1.52;;;1.30;;
13234;SDS011;6683;48.506;9.050;2022-08-11T16:01:21;1.58;;;1.38;;
13234;SDS011;6683;48.506;9.050;2022-08-11T16:04:43;1.58;;;1.48;;
13234;SDS011;6683;48.506;9.050;2022-08-11T16:07:47;2.35;;;1.77;;
13234;SDS011;6683;48.506;9.050;2022-08-11T16:10:53;2.50;;;1.50;;
13234;SDS011;6683;48.506;9.050;2022-08-11T16:13:57;1.08;;;1.08;;
13234;SDS011;6683;48.506;9.050;2022-08-11T16:17:21;1.88;;;1.52;;
13234;SDS011;6683;48.506;9.050;2022-08-11T16:20:27;1.30;;;1.20;;
13234;SDS011;6683;48.506;9.050;2022-08-11T16:23:30;1.63;;;1.52;;
13234;SDS011;6683;48.506;9.050;2022-08-11T16:26:35;1.67;;;1.30;;
13234;SDS011;6683;48.506;9.050;2022-08-11T16:29:43;3.08;;;1.42;;
13234;SDS011;6683;48.506;9.050;2022-08-11T16:32:48;1.63;;;1.35;;
13234;SDS011;6683;48.506;9.050;2022-08-11T16:35:53;1.80;;;1.50;;
13234;SDS011;6683;48.506;9.050;2022-08-11T16:39:15;1.27;;;1.20;;
13234;SDS011;6683;48.506;9.050;2022-08-11T16:42:20;2.10;;;1.40;;
13234;SDS011;6683;48.506;9.050;2022-08-11T16:45:40;1.90;;;1.42;;
13234;SDS011;6683;48.506;9.050;2022-08-11T16:49:03;2.03;;;1.35;;
13234;SDS011;6683;48.506;9.050;2022-08-11T16:52:08;1.27;;;1.10;;
13234;SDS011;6683;48.506;9.050;2022-08-11T16:55:11;1.52;;;1.42;;
13234;SDS011;6683;48.506;9.050;2022-08-11T16:58:16;2.35;;;1.42;;
13234;SDS011;6683;48.506;9.050;2022-08-11T17:01:44;1.85;;;1.40;;
13234;SDS011;6683;48.506;9.050;2022-08-11T17:04:53;1.48;;;1.38;;
13234;SDS011;6683;48.506;9.050;2022-08-11T17:08:14;1.15;;;1.08;;
13234;SDS011;6683;48.506;9.050;2022-08-11T17:11:39;1.35;;;1.25;;
13234;SDS011;6683;48.506;9.050;2022-08-11T17:15:08;1.20;;;1.20;;
13234;SDS011;6683;48.506;9.050;2022-08-11T17:18:29;1.40;;;1.30;;
13234;SDS011;6683;48.506;9.050;2022-08-11T17:21:43;1.40;;;1.30;;
13234;SDS011;6683;48.506;9.050;2022-08-11T17:25:06;1.30;;;1.20;;
13234;SDS011;6683;48.506;9.050;2022-08-11T17:28:10;1.88;;;1.13;;
13234;SDS011;6683;48.506;9.050;2022-08-11T17:31:15;1.40;;;1.30;;
13234;SDS011;6683;48.506;9.050;2022-08-11T17:34:37;1.92;;;1.45;;
13234;SDS011;6683;48.506;9.050;2022-08-11T17:38:02;1.63;;;1.40;;
13234;SDS011;6683;48.506;9.050;2022-08-11T17:41:08;1.40;;;1.30;;
13234;SDS011;6683;48.506;9.050;2022-08-11T17:44:29;1.88;;;1.42;;
13234;SDS011;6683;48.506;9.050;2022-08-11T17:47:53;0.93;;;0.93;;
13234;SDS011;6683;48.506;9.050;2022-08-11T17:51:16;1.38;;;1.23;;
13234;SDS011;6683;48.506;9.050;2022-08-11T17:54:34;1.83;;;1.30;;
13234;SDS011;6683;48.506;9.050;2022-08-11T17:57:55;1.20;;;1.10;;
13234;SDS011;6683;48.506;9.050;2022-08-11T18:01:15;1.40;;;1.27;;
13234;SDS011;6683;48.506;9.050;2022-08-11T18:04:21;1.58;;;1.30;;
13234;SDS011;6683;48.506;9.050;2022-08-11T18:07:25;2.08;;;1.13;;
13234;SDS011;6683;48.506;9.050;2022-08-11T18:10:45;1.05;;;1.05;;
13234;SDS011;6683;48.506;9.050;2022-08-11T18:14:06;1.30;;;1.20;;
13234;SDS011;6683;48.506;9.050;2022-08-11T18:17:29;1.85;;;1.00;;
13234;SDS011;6683;48.506;9.050;2022-08-11T18:20:51;1.55;;;0.98;;
13234;SDS011;6683;48.506;9.050;2022-08-11T18:24:12;1.00;;;0.90;;
13234;SDS011;6683;48.506;9.050;2022-08-11T18:27:34;3.08;;;2.08;;
13234;SDS011;6683;48.506;9.050;2022-08-11T18:30:57;1.45;;;1.30;;
13234;SDS011;6683;48.506;9.050;2022-08-11T18:34:20;1.30;;;1.20;;
13234;SDS011;6683;48.506;9.050;2022-08-11T18:37:48;2.45;;;1.08;;
13234;SDS011;6683;48.506;9.050;2022-08-11T18:41:09;1.40;;;1.30;;
13234;SDS011;6683;48.506;9.050;2022-08-11T18:44:31;1.23;;;1.13;;
13234;SDS011;6683;48.506;9.050;2022-08-11T18:47:54;1.40;;;1.30;;
13234;SDS011;6683;48.506;9.050;2022-08-11T18:51:19;1.30;;;1.20;;
13234;SDS011;6683;48.506;9.050;2022-08-11T18:54:42;2.50;;;1.20;;
13234;SDS011;6683;48.506;9.050;2022-08-11T18:58:06;1.95;;;1.50;;
13234;SDS011;6683;48.506;9.050;2022-08-11T19:01:30;2.15;;;1.20;;
13234;SDS011;6683;48.506;9.050;2022-08-11T19:04:53;2.47;;;1.08;;
13234;SDS011;6683;48.506;9.050;2022-08-11T19:08:16;2.45;;;1.30;;
13234;SDS011;6683;48.506;9.050;2022-08-11T19:11:40;1.15;;;1.05;;
13234;SDS011;6683;48.506;9.050;2022-08-11T19:15:03;1.80;;;1.55;;
13234;SDS011;6683;48.506;9.050;2022-08-11T19:18:25;2.53;;;1.15;;
13234;SDS011;6683;48.506;9.050;2022-08-11T19:21:47;1.65;;;1.55;;
13234;SDS011;6683;48.506;9.050;2022-08-11T19:25:09;1.35;;;1.25;;
13234;SDS011;6683;48.506;9.050;2022-08-11T19:28:34;1.65;;;1.33;;
13234;SDS011;6683;48.506;9.050;2022-08-11T19:31:57;1.85;;;1.33;;
13234;SDS011;6683;48.506;9.050;2022-08-11T19:35:17;2.70;;;1.23;;
13234;SDS011;6683;48.506;9.050;2022-08-11T19:38:37;1.25;;;1.15;;
13234;SDS011;6683;48.506;9.050;2022-08-11T19:41:57;1.27;;;1.17;;
13234;SDS011;6683;48.506;9.050;2022-08-11T19:45:20;2.55;;;1.40;;
13234;SDS011;6683;48.506;9.050;2022-08-11T19:48:40;1.30;;;1.20;;
13234;SDS011;6683;48.506;9.050;2022-08-11T19:52:04;3.05;;;1.20;;
13234;SDS011;6683;48.506;9.050;2022-08-11T19:55:24;1.45;;;1.00;;
13234;SDS011;6683;48.506;9.050;2022-08-11T19:58:45;1.52;;;1.17;;
13234;SDS011;6683;48.506;9.050;2022-08-11T20:02:08;1.43;;;1.10;;
13234;SDS011;6683;48.506;9.050;2022-08-11T20:05:28;1.83;;;1.27;;
13234;SDS011;6683;48.506;9.050;2022-08-11T20:08:49;1.10;;;1.10;;
13234;SDS011;6683;48.506;9.050;2022-08-11T20:12:13;1.10;;;1.00;;
13234;SDS011;6683;48.506;9.050;2022-08-11T20:15:34;1.10;;;1.00;;
13234;SDS011;6683;48.506;9.050;2022-08-11T20:18:56;3.93;;;1.30;;
13234;SDS011;6683;48.506;9.050;2022-08-11T20:22:19;3.07;;;1.00;;
13234;SDS011;6683;48.506;9.050;2022-08-11T20:25:40;1.67;;;1.00;;
13234;SDS011;6683;48.506;9.050;2022-08-11T20:29:00;1.20;;;1.10;;
13234;SDS011;6683;48.506;9.050;2022-08-11T20:32:20;2.10;;;1.00;;
13234;SDS011;6683;48.506;9.050;2022-08-11T20:35:42;1.30;;;1.00;;
13234;SDS011;6683;48.506;9.050;2022-08-11T20:39:02;2.13;;;1.23;;
13234;SDS011;6683;48.506;9.050;2022-08-11T20:42:23;1.47;;;1.20;;
13234;SDS011;6683;48.506;9.050;2022-08-11T20:45:44;1.30;;;1.20;;
13234;SDS011;6683;48.506;9.050;2022-08-11T20:49:07;3.10;;;1.40;;
13234;SDS011;6683;48.506;9.050;2022-08-11T20:52:29;2.77;;;1.30;;